Albrightsville, Pennsylvania
Current Conditions -  °F | °C
As of 8:53 AM on Sunday 25 Jan 2015 (Local Time) from KMPO Reporting Station
Broken Clouds Broken Clouds  
Wind Chill: -7°   Ceiling: 3700
Heat Index: -1°   Visibility: 10mi
Dew Point: -7°   Wind: 16mph
Humidity: 64%   Direction: 310°NW
Pressure: 29.64"   Gusts: 28mph
Location:  41°N, 75.53°W
Report Text: KMPO 251353Z AUTO 31014G24KT 10SM SCT027 BKN037 BKN045 M01/M07 A2964 RMK AO2 SNE29 SLP055 P0000 T10061067
Loading
Personal Weather Stations






























Interactive Weather Map New forecast layout! Learn more

10-Day Weather Forecast

Advertisements
Track Severe Weather on mobile